sensor_id;sensor_type;location;lat;lon;timestamp;pressure;altitude;pressure_sealevel;temperature;humidity
37304;BME280;23188;51.188;16.374;2022-10-16T00:02:38;100078.98;;;16.49;100.00
37304;BME280;23188;51.188;16.374;2022-10-16T00:06:40;100083.34;;;16.62;100.00
37304;BME280;23188;51.188;16.374;2022-10-16T00:10:41;100090.38;;;16.67;100.00
37304;BME280;23188;51.188;16.374;2022-10-16T00:14:43;100082.48;;;16.70;100.00
37304;BME280;23188;51.188;16.374;2022-10-16T00:18:44;100079.12;;;16.72;100.00
37304;BME280;23188;51.188;16.374;2022-10-16T00:22:45;100079.16;;;16.64;100.00
37304;BME280;23188;51.188;16.374;2022-10-16T00:26:49;100089.39;;;16.60;100.00
37304;BME280;23188;51.188;16.374;2022-10-16T00:30:50;100085.70;;;16.57;100.00
37304;BME280;23188;51.188;16.374;2022-10-16T00:34:51;100082.84;;;16.54;100.00
37304;BME280;23188;51.188;16.374;2022-10-16T00:38:56;100075.97;;;16.48;100.00
37304;BME280;23188;51.188;16.374;2022-10-16T00:42:59;100078.32;;;16.47;100.00
37304;BME280;23188;51.188;16.374;2022-10-16T00:47:00;100078.16;;;16.48;100.00
37304;BME280;23188;51.188;16.374;2022-10-16T00:51:01;100085.70;;;16.45;100.00
37304;BME280;23188;51.188;16.374;2022-10-16T00:55:04;100086.22;;;16.48;100.00
37304;BME280;23188;51.188;16.374;2022-10-16T00:59:14;100084.52;;;16.55;100.00
37304;BME280;23188;51.188;16.374;2022-10-16T01:07:47;100078.95;;;16.69;100.00
37304;BME280;23188;51.188;16.374;2022-10-16T01:12:10;100085.84;;;16.72;100.00
37304;BME280;23188;51.188;16.374;2022-10-16T01:16:29;100088.66;;;16.83;100.00
37304;BME280;23188;51.188;16.374;2022-10-16T01:20:42;100087.98;;;16.93;100.00
37304;BME280;23188;51.188;16.374;2022-10-16T01:24:46;100084.75;;;16.98;100.00
37304;BME280;23188;51.188;16.374;2022-10-16T01:28:58;100084.59;;;17.08;100.00
37304;BME280;23188;51.188;16.374;2022-10-16T01:33:12;100072.82;;;17.09;100.00
37304;BME280;23188;51.188;16.374;2022-10-16T01:37:19;100082.38;;;17.16;100.00
37304;BME280;23188;51.188;16.374;2022-10-16T01:41:33;100082.38;;;17.20;100.00
37304;BME280;23188;51.188;16.374;2022-10-16T01:45:34;100084.86;;;17.25;100.00
37304;BME280;23188;51.188;16.374;2022-10-16T01:49:38;100081.98;;;17.31;100.00
37304;BME280;23188;51.188;16.374;2022-10-16T01:53:44;100082.81;;;17.36;100.00
37304;BME280;23188;51.188;16.374;2022-10-16T01:57:49;100091.70;;;17.40;100.00
37304;BME280;23188;51.188;16.374;2022-10-16T02:01:56;100101.76;;;17.38;100.00
37304;BME280;23188;51.188;16.374;2022-10-16T02:06:02;100112.69;;;17.41;100.00
37304;BME280;23188;51.188;16.374;2022-10-16T02:10:04;100116.01;;;17.47;100.00
37304;BME280;23188;51.188;16.374;2022-10-16T02:14:06;100125.56;;;17.54;100.00
37304;BME280;23188;51.188;16.374;2022-10-16T02:18:09;100135.11;;;17.61;100.00
37304;BME280;23188;51.188;16.374;2022-10-16T02:22:18;100140.60;;;17.72;100.00
37304;BME280;23188;51.188;16.374;2022-10-16T02:26:24;100150.65;;;17.82;100.00
37304;BME280;23188;51.188;16.374;2022-10-16T02:30:43;100143.23;;;17.84;100.00
37304;BME280;23188;51.188;16.374;2022-10-16T02:34:49;100140.38;;;17.81;100.00
37304;BME280;23188;51.188;16.374;2022-10-16T02:38:50;100133.72;;;17.73;100.00
37304;BME280;23188;51.188;16.374;2022-10-16T02:42:53;100142.50;;;17.63;100.00
37304;BME280;23188;51.188;16.374;2022-10-16T02:46:55;100142.69;;;17.57;100.00
37304;BME280;23188;51.188;16.374;2022-10-16T02:50:56;100143.20;;;17.56;100.00
37304;BME280;23188;51.188;16.374;2022-10-16T02:54:57;100130.25;;;17.56;100.00
37304;BME280;23188;51.188;16.374;2022-10-16T02:58:58;100126.30;;;17.44;100.00
37304;BME280;23188;51.188;16.374;2022-10-16T03:03:00;100132.54;;;17.36;100.00
37304;BME280;23188;51.188;16.374;2022-10-16T03:07:01;100128.18;;;17.35;100.00
37304;BME280;23188;51.188;16.374;2022-10-16T03:11:02;100128.20;;;17.31;100.00
37304;BME280;23188;51.188;16.374;2022-10-16T03:15:04;100133.77;;;17.17;100.00
37304;BME280;23188;51.188;16.374;2022-10-16T03:19:05;100139.02;;;17.10;100.00
37304;BME280;23188;51.188;16.374;2022-10-16T03:23:07;100145.23;;;17.06;100.00
37304;BME280;23188;51.188;16.374;2022-10-16T03:27:08;100152.63;;;17.04;100.00
37304;BME280;23188;51.188;16.374;2022-10-16T03:31:10;100155.14;;;17.02;100.00
37304;BME280;23188;51.188;16.374;2022-10-16T03:35:11;100159.65;;;16.97;100.00
37304;BME280;23188;51.188;16.374;2022-10-16T03:39:12;100151.80;;;16.99;100.00
37304;BME280;23188;51.188;16.374;2022-10-16T03:43:13;100155.49;;;16.98;100.00
37304;BME280;23188;51.188;16.374;2022-10-16T03:47:15;100153.14;;;16.99;100.00
37304;BME280;23188;51.188;16.374;2022-10-16T03:51:16;100163.54;;;17.03;100.00
37304;BME280;23188;51.188;16.374;2022-10-16T03:55:17;100162.21;;;16.98;100.00
37304;BME280;23188;51.188;16.374;2022-10-16T03:59:18;100166.08;;;17.00;100.00
37304;BME280;23188;51.188;16.374;2022-10-16T04:03:19;100162.00;;;16.96;100.00
37304;BME280;23188;51.188;16.374;2022-10-16T04:07:20;100170.27;;;16.90;100.00
37304;BME280;23188;51.188;16.374;2022-10-16T04:11:21;100177.31;;;16.83;100.00
37304;BME280;23188;51.188;16.374;2022-10-16T04:15:23;100177.80;;;16.78;100.00
37304;BME280;23188;51.188;16.374;2022-10-16T04:19:25;100194.78;;;16.79;100.00
37304;BME280;23188;51.188;16.374;2022-10-16T04:23:26;100189.76;;;16.72;100.00
37304;BME280;23188;51.188;16.374;2022-10-16T04:27:28;100191.08;;;16.67;100.00
37304;BME280;23188;51.188;16.374;2022-10-16T04:31:29;100180.86;;;16.67;100.00
37304;BME280;23188;51.188;16.374;2022-10-16T04:35:30;100181.69;;;16.63;100.00
37304;BME280;23188;51.188;16.374;2022-10-16T04:39:31;100183.36;;;16.64;100.00
37304;BME280;23188;51.188;16.374;2022-10-16T04:43:33;100189.06;;;16.65;100.00
37304;BME280;23188;51.188;16.374;2022-10-16T04:47:34;100180.86;;;16.67;100.00
37304;BME280;23188;51.188;16.374;2022-10-16T04:51:35;100184.03;;;16.62;100.00
37304;BME280;23188;51.188;16.374;2022-10-16T04:55:36;100192.28;;;16.61;100.00
37304;BME280;23188;51.188;16.374;2022-10-16T04:59:38;100202.50;;;16.57;100.00
37304;BME280;23188;51.188;16.374;2022-10-16T05:03:39;100202.66;;;16.55;100.00
37304;BME280;23188;51.188;16.374;2022-10-16T05:07:40;100206.87;;;16.58;100.00
37304;BME280;23188;51.188;16.374;2022-10-16T05:11:42;100213.23;;;16.65;100.00
37304;BME280;23188;51.188;16.374;2022-10-16T05:15:47;100219.11;;;16.73;100.00
37304;BME280;23188;51.188;16.374;2022-10-16T05:19:49;100220.45;;;16.77;100.00
37304;BME280;23188;51.188;16.374;2022-10-16T05:23:50;100232.72;;;16.76;100.00
37304;BME280;23188;51.188;16.374;2022-10-16T05:27:51;100228.51;;;16.77;100.00
37304;BME280;23188;51.188;16.374;2022-10-16T05:31:53;100234.21;;;16.78;100.00
37304;BME280;23188;51.188;16.374;2022-10-16T05:35:54;100225.65;;;16.87;100.00
37304;BME280;23188;51.188;16.374;2022-10-16T05:39:55;100226.48;;;16.96;100.00
37304;BME280;23188;51.188;16.374;2022-10-16T05:43:56;100230.03;;;16.92;100.00
37304;BME280;23188;51.188;16.374;2022-10-16T05:47:57;100237.43;;;16.90;100.00
37304;BME280;23188;51.188;16.374;2022-10-16T05:51:58;100238.25;;;16.91;100.00
37304;BME280;23188;51.188;16.374;2022-10-16T05:56:00;100241.61;;;16.93;100.00
37304;BME280;23188;51.188;16.374;2022-10-16T06:00:03;100245.50;;;16.98;100.00
37304;BME280;23188;51.188;16.374;2022-10-16T06:04:04;100243.99;;;17.04;100.00
37304;BME280;23188;51.188;16.374;2022-10-16T06:08:05;100258.59;;;17.06;100.00
37304;BME280;23188;51.188;16.374;2022-10-16T06:12:06;100261.26;;;17.22;100.00
37304;BME280;23188;51.188;16.374;2022-10-16T06:16:09;100269.65;;;17.36;100.00
37304;BME280;23188;51.188;16.374;2022-10-16T06:20:11;100271.80;;;17.49;100.00
37304;BME280;23188;51.188;16.374;2022-10-16T06:24:12;100281.02;;;17.59;100.00
37304;BME280;23188;51.188;16.374;2022-10-16T06:28:14;100291.08;;;17.73;100.00
37304;BME280;23188;51.188;16.374;2022-10-16T06:32:15;100295.73;;;17.83;100.00
37304;BME280;23188;51.188;16.374;2022-10-16T06:36:17;100295.59;;;17.77;100.00
37304;BME280;23188;51.188;16.374;2022-10-16T06:40:19;100302.36;;;17.64;100.00
37304;BME280;23188;51.188;16.374;2022-10-16T06:44:20;100298.00;;;17.63;100.00
37304;BME280;23188;51.188;16.374;2022-10-16T06:48:22;100295.66;;;17.52;100.00
37304;BME280;23188;51.188;16.374;2022-10-16T06:52:24;100302.22;;;17.53;100.00
37304;BME280;23188;51.188;16.374;2022-10-16T06:56:26;100299.87;;;17.54;100.00
37304;BME280;23188;51.188;16.374;2022-10-16T07:00:28;100313.78;;;17.66;100.00
37304;BME280;23188;51.188;16.374;2022-10-16T07:04:29;100311.23;;;17.77;100.00
37304;BME280;23188;51.188;16.374;2022-10-16T07:08:34;100315.20;;;17.98;100.00
37304;BME280;23188;51.188;16.374;2022-10-16T07:12:37;100330.45;;;18.22;100.00
37304;BME280;23188;51.188;16.374;2022-10-16T07:16:38;100322.44;;;18.41;100.00
37304;BME280;23188;51.188;16.374;2022-10-16T07:20:39;100330.27;;;18.55;100.00
37304;BME280;23188;51.188;16.374;2022-10-16T07:24:41;100328.89;;;18.64;100.00
37304;BME280;23188;51.188;16.374;2022-10-16T07:28:42;100325.20;;;18.84;100.00
37304;BME280;23188;51.188;16.374;2022-10-16T07:32:44;100326.75;;;19.06;100.00
37304;BME280;23188;51.188;16.374;2022-10-16T07:36:48;100330.75;;;19.14;100.00
37304;BME280;23188;51.188;16.374;2022-10-16T07:41:03;100338.75;;;19.22;100.00
37304;BME280;23188;51.188;16.374;2022-10-16T07:45:07;100339.20;;;19.11;99.93
37304;BME280;23188;51.188;16.374;2022-10-16T07:49:08;100337.86;;;19.11;100.00
37304;BME280;23188;51.188;16.374;2022-10-16T07:53:10;100341.94;;;19.03;99.90
37304;BME280;23188;51.188;16.374;2022-10-16T07:57:12;100346.68;;;19.01;100.00
37304;BME280;23188;51.188;16.374;2022-10-16T08:01:16;100356.64;;;19.00;100.00
37304;BME280;23188;51.188;16.374;2022-10-16T08:05:18;100351.05;;;18.97;100.00
37304;BME280;23188;51.188;16.374;2022-10-16T08:09:20;100348.36;;;18.97;100.00
37304;BME280;23188;51.188;16.374;2022-10-16T08:13:21;100359.06;;;19.14;100.00
37304;BME280;23188;51.188;16.374;2022-10-16T08:17:22;100361.95;;;19.32;100.00
37304;BME280;23188;51.188;16.374;2022-10-16T08:21:23;100362.15;;;19.45;100.00
37304;BME280;23188;51.188;16.374;2022-10-16T08:25:25;100363.24;;;19.55;100.00
37304;BME280;23188;51.188;16.374;2022-10-16T08:29:26;100375.49;;;19.62;99.61
37304;BME280;23188;51.188;16.374;2022-10-16T08:33:27;100378.56;;;19.59;98.29
37304;BME280;23188;51.188;16.374;2022-10-16T08:37:30;100385.35;;;19.54;98.74
37304;BME280;23188;51.188;16.374;2022-10-16T08:46:42;100382.73;;;19.46;99.10
37304;BME280;23188;51.188;16.374;2022-10-16T08:50:13;100379.69;;;19.45;99.49
37304;BME280;23188;51.188;16.374;2022-10-16T08:54:33;100382.00;;;19.52;100.00
37304;BME280;23188;51.188;16.374;2022-10-16T08:58:40;100390.53;;;19.60;99.87
37304;BME280;23188;51.188;16.374;2022-10-16T09:07:26;100389.63;;;19.83;98.09
37304;BME280;23188;51.188;16.374;2022-10-16T09:24:54;100388.05;;;20.08;96.44
37304;BME280;23188;51.188;16.374;2022-10-16T09:28:57;100384.80;;;20.12;95.79
37304;BME280;23188;51.188;16.374;2022-10-16T09:32:58;100392.78;;;20.21;95.82
37304;BME280;23188;51.188;16.374;2022-10-16T09:37:05;100383.61;;;20.41;96.05
37304;BME280;23188;51.188;16.374;2022-10-16T09:45:23;100384.51;;;20.89;96.92
37304;BME280;23188;51.188;16.374;2022-10-16T09:49:26;100388.96;;;21.08;92.59
37304;BME280;23188;51.188;16.374;2022-10-16T09:53:45;100393.13;;;21.10;90.90
37304;BME280;23188;51.188;16.374;2022-10-16T09:57:53;100388.17;;;21.36;94.53
37304;BME280;23188;51.188;16.374;2022-10-16T10:01:55;100402.84;;;21.70;92.14
37304;BME280;23188;51.188;16.374;2022-10-16T10:05:57;100395.94;;;21.96;92.41
37304;BME280;23188;51.188;16.374;2022-10-16T10:09:58;100396.79;;;22.14;88.63
37304;BME280;23188;51.188;16.374;2022-10-16T10:14:20;100401.53;;;22.23;88.22
37304;BME280;23188;51.188;16.374;2022-10-16T10:18:24;100401.84;;;22.24;86.92
37304;BME280;23188;51.188;16.374;2022-10-16T10:22:38;100400.53;;;22.37;88.05
37304;BME280;23188;51.188;16.374;2022-10-16T10:27:10;100392.97;;;22.44;85.29
37304;BME280;23188;51.188;16.374;2022-10-16T10:31:42;100392.95;;;22.54;87.90
37304;BME280;23188;51.188;16.374;2022-10-16T10:40:51;100393.06;;;22.95;86.41
37304;BME280;23188;51.188;16.374;2022-10-16T10:45:26;100373.28;;;23.21;81.52
37304;BME280;23188;51.188;16.374;2022-10-16T10:58:24;100365.13;;;24.02;81.66
37304;BME280;23188;51.188;16.374;2022-10-16T11:06:55;100380.89;;;24.32;77.54
37304;BME280;23188;51.188;16.374;2022-10-16T11:11:13;100365.72;;;24.41;77.49
37304;BME280;23188;51.188;16.374;2022-10-16T11:15:36;100372.08;;;24.44;78.58
37304;BME280;23188;51.188;16.374;2022-10-16T11:23:55;100381.31;;;24.36;78.92
37304;BME280;23188;51.188;16.374;2022-10-16T11:28:19;100371.18;;;24.34;80.28
37304;BME280;23188;51.188;16.374;2022-10-16T11:32:34;100378.28;;;24.35;80.22
37304;BME280;23188;51.188;16.374;2022-10-16T11:36:50;100384.61;;;24.22;78.90
37304;BME280;23188;51.188;16.374;2022-10-16T11:41:11;100380.69;;;24.04;79.58
37304;BME280;23188;51.188;16.374;2022-10-16T11:45:33;100386.61;;;23.97;76.98
37304;BME280;23188;51.188;16.374;2022-10-16T11:49:39;100393.94;;;23.90;74.95
37304;BME280;23188;51.188;16.374;2022-10-16T11:54:21;100401.59;;;23.84;74.95
37304;BME280;23188;51.188;16.374;2022-10-16T12:03:31;100402.75;;;23.65;79.75
37304;BME280;23188;51.188;16.374;2022-10-16T12:07:36;100416.13;;;23.53;81.65
37304;BME280;23188;51.188;16.374;2022-10-16T12:11:40;100415.48;;;23.37;82.70
37304;BME280;23188;51.188;16.374;2022-10-16T12:15:41;100419.11;;;23.27;82.61
37304;BME280;23188;51.188;16.374;2022-10-16T12:19:43;100417.83;;;23.23;83.75
37304;BME280;23188;51.188;16.374;2022-10-16T12:23:51;100427.64;;;23.24;84.90
37304;BME280;23188;51.188;16.374;2022-10-16T12:28:00;100428.49;;;23.24;85.22
37304;BME280;23188;51.188;16.374;2022-10-16T12:32:05;100435.93;;;23.27;84.49
37304;BME280;23188;51.188;16.374;2022-10-16T12:36:16;100436.05;;;23.29;84.20
37304;BME280;23188;51.188;16.374;2022-10-16T12:40:29;100433.32;;;23.36;84.31
37304;BME280;23188;51.188;16.374;2022-10-16T12:44:34;100439.48;;;23.41;83.46
37304;BME280;23188;51.188;16.374;2022-10-16T12:48:38;100444.81;;;23.45;83.25
37304;BME280;23188;51.188;16.374;2022-10-16T12:52:40;100437.41;;;23.49;83.06
37304;BME280;23188;51.188;16.374;2022-10-16T13:00:55;100446.70;;;23.58;83.78
37304;BME280;23188;51.188;16.374;2022-10-16T13:05:21;100449.75;;;23.59;83.87
37304;BME280;23188;51.188;16.374;2022-10-16T13:09:52;100440.34;;;23.68;84.21
37304;BME280;23188;51.188;16.374;2022-10-16T13:32:07;100446.80;;;24.01;81.62
37304;BME280;23188;51.188;16.374;2022-10-16T13:36:25;100459.02;;;23.87;81.12
37304;BME280;23188;51.188;16.374;2022-10-16T13:40:28;100465.81;;;23.60;79.40
37304;BME280;23188;51.188;16.374;2022-10-16T13:44:34;100477.78;;;23.35;80.68
37304;BME280;23188;51.188;16.374;2022-10-16T13:48:37;100486.93;;;23.20;81.89
37304;BME280;23188;51.188;16.374;2022-10-16T13:52:38;100491.48;;;23.13;82.47
37304;BME280;23188;51.188;16.374;2022-10-16T13:56:39;100486.49;;;23.17;86.01
37304;BME280;23188;51.188;16.374;2022-10-16T14:00:56;100483.91;;;23.19;84.64
37304;BME280;23188;51.188;16.374;2022-10-16T14:05:00;100482.55;;;23.19;85.18
37304;BME280;23188;51.188;16.374;2022-10-16T14:09:08;100475.81;;;23.02;84.94
37304;BME280;23188;51.188;16.374;2022-10-16T14:13:16;100481.63;;;22.99;85.19
37304;BME280;23188;51.188;16.374;2022-10-16T14:17:21;100494.17;;;23.00;85.25
37304;BME280;23188;51.188;16.374;2022-10-16T14:21:24;100491.40;;;22.86;85.83
37304;BME280;23188;51.188;16.374;2022-10-16T14:25:30;100500.00;;;22.79;86.07
37304;BME280;23188;51.188;16.374;2022-10-16T14:29:33;100504.42;;;22.80;86.50
37304;BME280;23188;51.188;16.374;2022-10-16T14:33:36;100511.20;;;22.80;86.21
37304;BME280;23188;51.188;16.374;2022-10-16T14:37:37;100504.73;;;22.81;87.05
37304;BME280;23188;51.188;16.374;2022-10-16T14:41:43;100511.80;;;22.75;86.53
37304;BME280;23188;51.188;16.374;2022-10-16T14:45:52;100521.47;;;22.74;87.12
37304;BME280;23188;51.188;16.374;2022-10-16T14:49:55;100512.56;;;22.62;88.27
37304;BME280;23188;51.188;16.374;2022-10-16T14:53:58;100522.64;;;22.58;88.57
37304;BME280;23188;51.188;16.374;2022-10-16T14:57:59;100511.67;;;22.55;88.78
37304;BME280;23188;51.188;16.374;2022-10-16T15:06:35;100517.64;;;22.44;89.02
37304;BME280;23188;51.188;16.374;2022-10-16T15:10:41;100514.43;;;22.33;89.46
37304;BME280;23188;51.188;16.374;2022-10-16T15:14:44;100518.98;;;22.26;89.77
37304;BME280;23188;51.188;16.374;2022-10-16T15:18:45;100518.28;;;22.17;90.77
37304;BME280;23188;51.188;16.374;2022-10-16T15:22:46;100517.22;;;22.01;91.56
37304;BME280;23188;51.188;16.374;2022-10-16T15:26:47;100524.08;;;21.86;92.62
37304;BME280;23188;51.188;16.374;2022-10-16T15:30:50;100531.36;;;21.74;92.94
37304;BME280;23188;51.188;16.374;2022-10-16T15:34:53;100532.96;;;21.68;93.27
37304;BME280;23188;51.188;16.374;2022-10-16T15:38:55;100539.09;;;21.66;93.22
37304;BME280;23188;51.188;16.374;2022-10-16T15:42:56;100538.41;;;21.64;92.94
37304;BME280;23188;51.188;16.374;2022-10-16T15:46:57;100547.11;;;21.60;92.13
37304;BME280;23188;51.188;16.374;2022-10-16T15:51:00;100547.88;;;21.53;91.24
37304;BME280;23188;51.188;16.374;2022-10-16T15:55:07;100551.75;;;21.44;91.06
37304;BME280;23188;51.188;16.374;2022-10-16T15:59:11;100561.32;;;21.36;90.35
37304;BME280;23188;51.188;16.374;2022-10-16T16:03:13;100567.50;;;21.30;89.80
37304;BME280;23188;51.188;16.374;2022-10-16T16:07:14;100568.45;;;21.22;89.76
37304;BME280;23188;51.188;16.374;2022-10-16T16:11:16;100578.86;;;21.14;89.28
37304;BME280;23188;51.188;16.374;2022-10-16T16:15:21;100585.26;;;21.02;89.27
37304;BME280;23188;51.188;16.374;2022-10-16T16:19:23;100587.98;;;20.87;89.06
37304;BME280;23188;51.188;16.374;2022-10-16T16:23:24;100590.13;;;20.73;89.51
37304;BME280;23188;51.188;16.374;2022-10-16T16:27:25;100592.56;;;20.63;89.83
37304;BME280;23188;51.188;16.374;2022-10-16T16:31:27;100604.27;;;20.45;91.08
37304;BME280;23188;51.188;16.374;2022-10-16T16:35:29;100611.70;;;20.00;95.43
37304;BME280;23188;51.188;16.374;2022-10-16T16:39:31;100627.97;;;19.88;94.84
37304;BME280;23188;51.188;16.374;2022-10-16T16:43:32;100626.42;;;19.89;95.05
37304;BME280;23188;51.188;16.374;2022-10-16T16:47:33;100632.02;;;19.92;94.87
37304;BME280;23188;51.188;16.374;2022-10-16T16:51:34;100641.27;;;19.93;94.13
37304;BME280;23188;51.188;16.374;2022-10-16T16:55:35;100650.91;;;19.83;94.01
37304;BME280;23188;51.188;16.374;2022-10-16T16:59:36;100646.60;;;19.74;94.37
37304;BME280;23188;51.188;16.374;2022-10-16T17:03:37;100658.11;;;19.68;94.84
37304;BME280;23188;51.188;16.374;2022-10-16T17:07:39;100664.66;;;19.69;94.87
37304;BME280;23188;51.188;16.374;2022-10-16T17:11:41;100670.06;;;19.69;94.74
37304;BME280;23188;51.188;16.374;2022-10-16T17:15:49;100680.36;;;19.70;94.69
37304;BME280;23188;51.188;16.374;2022-10-16T17:19:51;100682.23;;;19.65;94.64
37304;BME280;23188;51.188;16.374;2022-10-16T17:23:53;100690.19;;;19.59;95.04
37304;BME280;23188;51.188;16.374;2022-10-16T17:27:54;100694.30;;;19.42;95.08
37304;BME280;23188;51.188;16.374;2022-10-16T17:31:55;100704.64;;;19.26;95.51
37304;BME280;23188;51.188;16.374;2022-10-16T17:35:57;100698.44;;;19.13;96.25
37304;BME280;23188;51.188;16.374;2022-10-16T17:39:58;100712.79;;;19.01;97.59
37304;BME280;23188;51.188;16.374;2022-10-16T17:44:00;100713.27;;;18.96;99.69
37304;BME280;23188;51.188;16.374;2022-10-16T17:48:02;100711.94;;;18.88;100.00
37304;BME280;23188;51.188;16.374;2022-10-16T17:52:03;100716.30;;;18.81;100.00
37304;BME280;23188;51.188;16.374;2022-10-16T17:56:10;100711.25;;;18.82;100.00
37304;BME280;23188;51.188;16.374;2022-10-16T18:00:13;100714.63;;;18.88;100.00
37304;BME280;23188;51.188;16.374;2022-10-16T18:04:15;100714.95;;;18.93;100.00
37304;BME280;23188;51.188;16.374;2022-10-16T18:08:17;100723.39;;;18.98;100.00
37304;BME280;23188;51.188;16.374;2022-10-16T18:12:18;100721.02;;;19.12;100.00
37304;BME280;23188;51.188;16.374;2022-10-16T18:16:20;100724.36;;;19.22;100.00
37304;BME280;23188;51.188;16.374;2022-10-16T18:20:21;100734.48;;;19.29;100.00
37304;BME280;23188;51.188;16.374;2022-10-16T18:55:32;100782.37;;;19.10;100.00
37304;BME280;23188;51.188;16.374;2022-10-16T18:59:33;100784.55;;;19.06;100.00
37304;BME280;23188;51.188;16.374;2022-10-16T19:03:35;100791.11;;;19.04;100.00
37304;BME280;23188;51.188;16.374;2022-10-16T19:07:38;100803.92;;;19.06;100.00
37304;BME280;23188;51.188;16.374;2022-10-16T19:11:40;100803.27;;;19.08;100.00
37304;BME280;23188;51.188;16.374;2022-10-16T19:15:41;100801.59;;;19.07;100.00
37304;BME280;23188;51.188;16.374;2022-10-16T19:19:43;100814.89;;;19.04;100.00
37304;BME280;23188;51.188;16.374;2022-10-16T19:23:44;100825.62;;;18.96;100.00
37304;BME280;23188;51.188;16.374;2022-10-16T19:27:47;100816.87;;;18.86;100.00
37304;BME280;23188;51.188;16.374;2022-10-16T19:31:49;100824.29;;;18.79;100.00
37304;BME280;23188;51.188;16.374;2022-10-16T19:35:50;100829.16;;;18.76;100.00
37304;BME280;23188;51.188;16.374;2022-10-16T19:39:52;100837.58;;;18.73;100.00
37304;BME280;23188;51.188;16.374;2022-10-16T19:43:53;100836.87;;;18.66;100.00
37304;BME280;23188;51.188;16.374;2022-10-16T19:47:55;100840.91;;;18.58;100.00
37304;BME280;23188;51.188;16.374;2022-10-16T19:51:56;100844.61;;;18.53;100.00
37304;BME280;23188;51.188;16.374;2022-10-16T19:55:57;100846.45;;;18.48;100.00
37304;BME280;23188;51.188;16.374;2022-10-16T19:59:58;100855.20;;;18.50;100.00
37304;BME280;23188;51.188;16.374;2022-10-16T20:04:00;100858.56;;;18.52;100.00
37304;BME280;23188;51.188;16.374;2022-10-16T20:08:01;100859.73;;;18.46;100.00
37304;BME280;23188;51.188;16.374;2022-10-16T20:12:03;100866.80;;;18.47;100.00
37304;BME280;23188;51.188;16.374;2022-10-16T20:16:05;100867.17;;;18.48;100.00
37304;BME280;23188;51.188;16.374;2022-10-16T20:20:07;100871.17;;;18.44;100.00
37304;BME280;23188;51.188;16.374;2022-10-16T20:24:08;100866.94;;;18.37;100.00
37304;BME280;23188;51.188;16.374;2022-10-16T20:28:12;100867.11;;;18.35;100.00
37304;BME280;23188;51.188;16.374;2022-10-16T20:32:15;100869.76;;;18.27;100.00
37304;BME280;23188;51.188;16.374;2022-10-16T20:36:18;100878.49;;;18.21;100.00
37304;BME280;23188;51.188;16.374;2022-10-16T20:40:20;100880.19;;;18.26;100.00
37304;BME280;23188;51.188;16.374;2022-10-16T20:44:22;100876.00;;;18.27;100.00
37304;BME280;23188;51.188;16.374;2022-10-16T20:48:23;100881.40;;;18.32;100.00
37304;BME280;23188;51.188;16.374;2022-10-16T20:52:24;100883.94;;;18.33;100.00
37304;BME280;23188;51.188;16.374;2022-10-16T20:56:26;100880.23;;;18.30;100.00
37304;BME280;23188;51.188;16.374;2022-10-16T21:00:29;100883.89;;;18.25;100.00
37304;BME280;23188;51.188;16.374;2022-10-16T21:04:30;100890.46;;;18.22;100.00
37304;BME280;23188;51.188;16.374;2022-10-16T21:08:36;100893.97;;;18.19;100.00
37304;BME280;23188;51.188;16.374;2022-10-16T21:12:39;100896.65;;;18.15;100.00
37304;BME280;23188;51.188;16.374;2022-10-16T21:16:40;100901.67;;;18.09;100.00
37304;BME280;23188;51.188;16.374;2022-10-16T21:20:42;100910.91;;;18.07;100.00
37304;BME280;23188;51.188;16.374;2022-10-16T21:24:43;100910.38;;;18.03;100.00
37304;BME280;23188;51.188;16.374;2022-10-16T21:28:45;100922.09;;;17.98;100.00
37304;BME280;23188;51.188;16.374;2022-10-16T21:32:46;100922.08;;;17.94;100.00
37304;BME280;23188;51.188;16.374;2022-10-16T21:36:47;100928.80;;;17.94;100.00
37304;BME280;23188;51.188;16.374;2022-10-16T21:40:48;100924.77;;;17.94;100.00
37304;BME280;23188;51.188;16.374;2022-10-16T21:44:49;100931.52;;;17.98;100.00
37304;BME280;23188;51.188;16.374;2022-10-16T21:48:58;100910.66;;;18.00;100.00
37304;BME280;23188;51.188;16.374;2022-10-16T21:53:00;100924.77;;;17.94;100.00
37304;BME280;23188;51.188;16.374;2022-10-16T21:57:02;100932.31;;;17.68;100.00
37304;BME280;23188;51.188;16.374;2022-10-16T22:01:07;100928.72;;;17.37;100.00
37304;BME280;23188;51.188;16.374;2022-10-16T22:05:10;100926.33;;;17.16;100.00
37304;BME280;23188;51.188;16.374;2022-10-16T22:09:12;100929.75;;;17.04;100.00
37304;BME280;23188;51.188;16.374;2022-10-16T22:13:14;100933.44;;;16.89;100.00
37304;BME280;23188;51.188;16.374;2022-10-16T22:17:15;100940.08;;;16.80;100.00
37304;BME280;23188;51.188;16.374;2022-10-16T22:21:16;100939.70;;;16.79;100.00
37304;BME280;23188;51.188;16.374;2022-10-16T22:25:17;100942.11;;;16.82;100.00
37304;BME280;23188;51.188;16.374;2022-10-16T22:29:18;100929.37;;;16.84;100.00
37304;BME280;23188;51.188;16.374;2022-10-16T22:33:20;100932.16;;;16.79;100.00
37304;BME280;23188;51.188;16.374;2022-10-16T22:37:21;100931.34;;;16.68;100.00
37304;BME280;23188;51.188;16.374;2022-10-16T22:41:22;100942.70;;;16.62;100.00
37304;BME280;23188;51.188;16.374;2022-10-16T22:45:26;100948.77;;;16.64;100.00